sensor_id;sensor_type;location;lat;lon;timestamp;pressure;altitude;pressure_sealevel;temperature;humidity
30856;BME280;17570;0.000;0.000;2022-10-16T00:00:48;97724.13;;;16.18;39.74
30856;BME280;17570;0.000;0.000;2022-10-16T00:03:16;97725.92;;;16.17;39.72
30856;BME280;17570;0.000;0.000;2022-10-16T00:05:43;97730.63;;;16.14;39.61
30856;BME280;17570;0.000;0.000;2022-10-16T00:08:11;97726.48;;;16.11;39.75
30856;BME280;17570;0.000;0.000;2022-10-16T00:10:40;97724.95;;;16.08;40.05
30856;BME280;17570;0.000;0.000;2022-10-16T00:13:08;97734.75;;;16.06;40.13
30856;BME280;17570;0.000;0.000;2022-10-16T00:15:36;97731.31;;;16.06;40.01
30856;BME280;17570;0.000;0.000;2022-10-16T00:18:05;97740.55;;;16.00;40.11
30856;BME280;17570;0.000;0.000;2022-10-16T00:20:35;97739.16;;;15.96;40.04
30856;BME280;17570;0.000;0.000;2022-10-16T00:23:04;97742.34;;;16.00;40.20
30856;BME280;17570;0.000;0.000;2022-10-16T00:25:32;97743.16;;;16.00;40.10
30856;BME280;17570;0.000;0.000;2022-10-16T00:28:00;97751.28;;;15.97;39.99
30856;BME280;17570;0.000;0.000;2022-10-16T00:30:27;97754.45;;;15.91;40.09
30856;BME280;17570;0.000;0.000;2022-10-16T00:32:55;97757.19;;;15.90;40.04
30856;BME280;17570;0.000;0.000;2022-10-16T00:35:23;97752.09;;;15.88;40.09
30856;BME280;17570;0.000;0.000;2022-10-16T00:37:50;97759.27;;;15.86;39.86
30856;BME280;17570;0.000;0.000;2022-10-16T00:40:18;97764.09;;;15.81;39.70
30856;BME280;17570;0.000;0.000;2022-10-16T00:42:45;97761.33;;;15.83;39.81
30856;BME280;17570;0.000;0.000;2022-10-16T00:45:13;97759.67;;;15.81;39.99
30856;BME280;17570;0.000;0.000;2022-10-16T00:47:42;97765.31;;;15.77;39.59
30856;BME280;17570;0.000;0.000;2022-10-16T00:50:13;97765.98;;;15.69;39.87
30856;BME280;17570;0.000;0.000;2022-10-16T00:52:41;97768.28;;;15.63;39.76
30856;BME280;17570;0.000;0.000;2022-10-16T00:55:09;97772.58;;;15.64;39.81
30856;BME280;17570;0.000;0.000;2022-10-16T00:57:37;97770.91;;;15.63;39.92
30856;BME280;17570;0.000;0.000;2022-10-16T01:00:05;97766.23;;;15.66;40.13
30856;BME280;17570;0.000;0.000;2022-10-16T01:02:34;97774.73;;;15.59;39.83
30856;BME280;17570;0.000;0.000;2022-10-16T01:05:01;97773.09;;;15.58;40.06
30856;BME280;17570;0.000;0.000;2022-10-16T01:10:17;97772.64;;;15.52;40.13
30856;BME280;17570;0.000;0.000;2022-10-16T01:12:57;97768.48;;;15.40;40.10
30856;BME280;17570;0.000;0.000;2022-10-16T01:15:25;97772.35;;;15.46;40.27
30856;BME280;17570;0.000;0.000;2022-10-16T01:18:13;97781.13;;;15.35;40.62
30856;BME280;17570;0.000;0.000;2022-10-16T01:23:36;97788.12;;;15.25;40.67
30856;BME280;17570;0.000;0.000;2022-10-16T01:31:26;97783.82;;;15.24;40.35
30856;BME280;17570;0.000;0.000;2022-10-16T01:33:57;97777.19;;;15.20;40.14
30856;BME280;17570;0.000;0.000;2022-10-16T01:36:23;97778.88;;;15.21;40.04
30856;BME280;17570;0.000;0.000;2022-10-16T01:38:51;97778.30;;;15.17;40.02
30856;BME280;17570;0.000;0.000;2022-10-16T01:41:34;97781.88;;;15.16;40.24
30856;BME280;17570;0.000;0.000;2022-10-16T01:44:01;97786.53;;;15.13;40.04
30856;BME280;17570;0.000;0.000;2022-10-16T01:46:27;97781.55;;;15.10;40.14
30856;BME280;17570;0.000;0.000;2022-10-16T01:48:55;97778.88;;;15.21;40.13
30856;BME280;17570;0.000;0.000;2022-10-16T01:51:24;97789.72;;;15.16;39.93
30856;BME280;17570;0.000;0.000;2022-10-16T01:53:54;97784.06;;;15.11;40.10
30856;BME280;17570;0.000;0.000;2022-10-16T01:56:22;97786.53;;;15.13;40.04
30856;BME280;17570;0.000;0.000;2022-10-16T01:58:55;97794.62;;;15.10;39.95
30856;BME280;17570;0.000;0.000;2022-10-16T02:01:21;97792.02;;;15.10;39.97
30856;BME280;17570;0.000;0.000;2022-10-16T02:03:51;97790.61;;;15.05;40.16
30856;BME280;17570;0.000;0.000;2022-10-16T02:06:19;97791.91;;;15.11;40.02
30856;BME280;17570;0.000;0.000;2022-10-16T02:08:48;97791.91;;;15.11;40.04
30856;BME280;17570;0.000;0.000;2022-10-16T02:11:15;97796.80;;;15.04;39.73
30856;BME280;17570;0.000;0.000;2022-10-16T02:13:50;97793.06;;;14.97;39.91
30856;BME280;17570;0.000;0.000;2022-10-16T02:16:13;97794.28;;;14.93;40.00
30856;BME280;17570;0.000;0.000;2022-10-16T02:18:40;97790.02;;;14.92;39.98
30856;BME280;17570;0.000;0.000;2022-10-16T02:21:31;97793.83;;;14.88;39.94
30856;BME280;17570;0.000;0.000;2022-10-16T02:24:08;97806.63;;;14.91;39.89
30856;BME280;17570;0.000;0.000;2022-10-16T02:26:42;97802.30;;;14.80;39.97
30856;BME280;17570;0.000;0.000;2022-10-16T02:29:12;97801.03;;;14.75;40.22
30856;BME280;17570;0.000;0.000;2022-10-16T02:31:41;97805.55;;;14.73;40.25
30856;BME280;17570;0.000;0.000;2022-10-16T02:34:07;97807.23;;;14.74;40.31
30856;BME280;17570;0.000;0.000;2022-10-16T02:36:38;97806.70;;;14.80;40.10
30856;BME280;17570;0.000;0.000;2022-10-16T02:39:07;97802.83;;;14.74;40.39
30856;BME280;17570;0.000;0.000;2022-10-16T02:41:35;97806.13;;;14.76;40.76
30856;BME280;17570;0.000;0.000;2022-10-16T02:44:02;97804.47;;;14.75;40.29
30856;BME280;17570;0.000;0.000;2022-10-16T02:46:30;97801.72;;;14.77;40.55
30856;BME280;17570;0.000;0.000;2022-10-16T02:48:58;97810.22;;;14.69;40.72
30856;BME280;17570;0.000;0.000;2022-10-16T02:51:25;97798.42;;;14.75;40.44
30856;BME280;17570;0.000;0.000;2022-10-16T02:53:53;97805.55;;;14.73;40.67
30856;BME280;17570;0.000;0.000;2022-10-16T02:56:20;97815.45;;;14.69;40.69
30856;BME280;17570;0.000;0.000;2022-10-16T02:58:48;97813.00;;;14.77;40.83
30856;BME280;17570;0.000;0.000;2022-10-16T03:01:16;97814.69;;;14.78;40.52
30856;BME280;17570;0.000;0.000;2022-10-16T03:03:43;97817.41;;;14.77;40.54
30856;BME280;17570;0.000;0.000;2022-10-16T03:06:11;97823.53;;;14.66;40.56
30856;BME280;17570;0.000;0.000;2022-10-16T03:08:38;97826.28;;;14.65;40.69
30856;BME280;17570;0.000;0.000;2022-10-16T03:11:06;97825.55;;;14.63;41.01
30856;BME280;17570;0.000;0.000;2022-10-16T03:13:34;97833.39;;;14.63;40.66
30856;BME280;17570;0.000;0.000;2022-10-16T03:16:01;97835.11;;;14.52;40.77
30856;BME280;17570;0.000;0.000;2022-10-16T03:18:29;97836.52;;;14.57;40.66
30856;BME280;17570;0.000;0.000;2022-10-16T03:20:56;97833.77;;;14.58;40.55
30856;BME280;17570;0.000;0.000;2022-10-16T03:23:24;97827.41;;;14.51;40.79
30856;BME280;17570;0.000;0.000;2022-10-16T03:25:52;97830.84;;;14.51;40.64
30856;BME280;17570;0.000;0.000;2022-10-16T03:28:20;97831.19;;;14.47;40.85
30856;BME280;17570;0.000;0.000;2022-10-16T03:30:47;97835.83;;;14.43;40.84
30856;BME280;17570;0.000;0.000;2022-10-16T03:33:15;97833.45;;;14.40;40.77
30856;BME280;17570;0.000;0.000;2022-10-16T03:35:42;97833.72;;;14.37;41.02
30856;BME280;17570;0.000;0.000;2022-10-16T03:38:10;97823.96;;;14.39;40.82
30856;BME280;17570;0.000;0.000;2022-10-16T03:40:37;97827.98;;;14.43;40.77
30856;BME280;17570;0.000;0.000;2022-10-16T03:43:05;97826.70;;;14.38;40.79
30856;BME280;17570;0.000;0.000;2022-10-16T03:45:32;97827.98;;;14.43;40.61
30856;BME280;17570;0.000;0.000;2022-10-16T03:48:00;97832.75;;;14.38;40.69
30856;BME280;17570;0.000;0.000;2022-10-16T03:50:29;97827.53;;;14.38;40.61
30856;BME280;17570;0.000;0.000;2022-10-16T03:52:56;97834.41;;;14.39;40.63
30856;BME280;17570;0.000;0.000;2022-10-16T03:55:24;97835.98;;;14.30;40.67
30856;BME280;17570;0.000;0.000;2022-10-16T03:57:51;97834.03;;;14.44;40.64
30856;BME280;17570;0.000;0.000;2022-10-16T04:00:19;97845.44;;;14.43;40.67
30856;BME280;17570;0.000;0.000;2022-10-16T04:02:47;97839.63;;;14.39;40.69
30856;BME280;17570;0.000;0.000;2022-10-16T04:05:14;97845.22;;;14.35;40.51
30856;BME280;17570;0.000;0.000;2022-10-16T04:07:44;97839.17;;;14.34;40.63
30856;BME280;17570;0.000;0.000;2022-10-16T04:10:11;97840.64;;;14.27;40.73
30856;BME280;17570;0.000;0.000;2022-10-16T04:12:39;97848.58;;;14.25;40.70
30856;BME280;17570;0.000;0.000;2022-10-16T04:15:07;97840.05;;;14.23;40.67
30856;BME280;17570;0.000;0.000;2022-10-16T04:17:34;97844.18;;;14.26;40.78
30856;BME280;17570;0.000;0.000;2022-10-16T04:20:02;97840.89;;;14.13;40.78
30856;BME280;17570;0.000;0.000;2022-10-16T04:22:30;97846.70;;;14.16;40.82
30856;BME280;17570;0.000;0.000;2022-10-16T04:24:57;97846.01;;;14.14;40.86
30856;BME280;17570;0.000;0.000;2022-10-16T04:27:25;97841.38;;;14.18;40.73
30856;BME280;17570;0.000;0.000;2022-10-16T04:29:52;97837.45;;;14.12;40.75
30856;BME280;17570;0.000;0.000;2022-10-16T04:32:20;97846.70;;;14.16;41.02
30856;BME280;17570;0.000;0.000;2022-10-16T04:34:49;97838.17;;;14.14;40.75
30856;BME280;17570;0.000;0.000;2022-10-16T04:37:16;97847.44;;;14.07;40.87
30856;BME280;17570;0.000;0.000;2022-10-16T04:39:44;97850.41;;;14.02;40.96
30856;BME280;17570;0.000;0.000;2022-10-16T04:42:11;97851.59;;;13.98;41.01
30856;BME280;17570;0.000;0.000;2022-10-16T04:44:39;97862.04;;;13.98;41.27
30856;BME280;17570;0.000;0.000;2022-10-16T04:47:06;97851.50;;;14.00;40.77
30856;BME280;17570;0.000;0.000;2022-10-16T04:49:34;97861.48;;;13.95;40.89
30856;BME280;17570;0.000;0.000;2022-10-16T04:52:02;97865.51;;;13.99;41.00
30856;BME280;17570;0.000;0.000;2022-10-16T04:54:29;97861.11;;;13.99;40.97
30856;BME280;17570;0.000;0.000;2022-10-16T04:56:57;97864.55;;;14.00;40.86
30856;BME280;17570;0.000;0.000;2022-10-16T04:59:24;97870.10;;;14.07;40.73
30856;BME280;17570;0.000;0.000;2022-10-16T05:01:52;97870.37;;;14.03;40.64
30856;BME280;17570;0.000;0.000;2022-10-16T05:04:19;97868.94;;;13.99;40.49
30856;BME280;17570;0.000;0.000;2022-10-16T05:06:47;97871.31;;;13.91;40.53
30856;BME280;17570;0.000;0.000;2022-10-16T05:09:15;97874.63;;;13.93;40.62
30856;BME280;17570;0.000;0.000;2022-10-16T05:11:42;97874.63;;;13.93;40.48
30856;BME280;17570;0.000;0.000;2022-10-16T05:14:10;97886.38;;;13.88;40.67
30856;BME280;17570;0.000;0.000;2022-10-16T05:16:37;97887.20;;;13.88;40.66
30856;BME280;17570;0.000;0.000;2022-10-16T05:19:05;97890.17;;;13.84;40.70
30856;BME280;17570;0.000;0.000;2022-10-16T05:21:32;97890.77;;;13.87;40.71
30856;BME280;17570;0.000;0.000;2022-10-16T05:24:00;97892.69;;;13.85;40.87
30856;BME280;17570;0.000;0.000;2022-10-16T05:26:28;97890.30;;;13.82;40.86
30856;BME280;17570;0.000;0.000;2022-10-16T05:28:55;97891.27;;;13.81;40.99
30856;BME280;17570;0.000;0.000;2022-10-16T05:31:23;97893.52;;;13.86;41.05
30856;BME280;17570;0.000;0.000;2022-10-16T05:33:50;97888.03;;;13.89;41.13
30856;BME280;17570;0.000;0.000;2022-10-16T05:36:18;97894.08;;;13.89;41.20
30856;BME280;17570;0.000;0.000;2022-10-16T05:38:45;97895.86;;;13.89;41.26
30856;BME280;17570;0.000;0.000;2022-10-16T05:41:13;97894.34;;;13.86;41.61
30856;BME280;17570;0.000;0.000;2022-10-16T05:43:40;97899.54;;;13.97;41.66
30856;BME280;17570;0.000;0.000;2022-10-16T05:46:08;97900.00;;;14.02;41.86
30856;BME280;17570;0.000;0.000;2022-10-16T05:48:35;97905.59;;;14.09;41.96
30856;BME280;17570;0.000;0.000;2022-10-16T05:51:04;97904.41;;;14.13;42.11
30856;BME280;17570;0.000;0.000;2022-10-16T05:53:34;97903.45;;;14.14;42.41
30856;BME280;17570;0.000;0.000;2022-10-16T05:56:02;97907.48;;;14.18;42.75
30856;BME280;17570;0.000;0.000;2022-10-16T05:58:30;97906.62;;;14.29;42.75
30856;BME280;17570;0.000;0.000;2022-10-16T06:00:59;97917.30;;;14.37;42.75
30856;BME280;17570;0.000;0.000;2022-10-16T06:03:27;97910.28;;;14.38;42.99
30856;BME280;17570;0.000;0.000;2022-10-16T06:05:55;97925.45;;;14.44;43.07
30856;BME280;17570;0.000;0.000;2022-10-16T06:08:22;97929.52;;;14.48;43.25
30856;BME280;17570;0.000;0.000;2022-10-16T06:11:01;97927.13;;;14.56;43.21
30856;BME280;17570;0.000;0.000;2022-10-16T06:13:29;97936.95;;;14.64;43.40
30856;BME280;17570;0.000;0.000;2022-10-16T06:15:58;97942.17;;;14.64;43.68
30856;BME280;17570;0.000;0.000;2022-10-16T06:18:26;97935.37;;;14.72;43.50
30856;BME280;17570;0.000;0.000;2022-10-16T06:20:54;97937.03;;;14.73;43.68
30856;BME280;17570;0.000;0.000;2022-10-16T06:23:22;97933.81;;;14.81;43.80
30856;BME280;17570;0.000;0.000;2022-10-16T06:25:52;97934.27;;;14.86;43.72
30856;BME280;17570;0.000;0.000;2022-10-16T06:28:20;97939.84;;;14.93;43.85
30856;BME280;17570;0.000;0.000;2022-10-16T06:30:47;97941.25;;;14.97;43.93
30856;BME280;17570;0.000;0.000;2022-10-16T06:33:15;97937.30;;;15.02;43.95
30856;BME280;17570;0.000;0.000;2022-10-16T06:35:42;97950.83;;;15.08;44.02
30856;BME280;17570;0.000;0.000;2022-10-16T06:38:10;97943.30;;;15.14;44.09
30856;BME280;17570;0.000;0.000;2022-10-16T06:40:38;97948.14;;;15.19;44.34
30856;BME280;17570;0.000;0.000;2022-10-16T06:43:05;97947.91;;;15.22;44.36
30856;BME280;17570;0.000;0.000;2022-10-16T06:45:39;97950.20;;;15.36;44.30
30856;BME280;17570;0.000;0.000;2022-10-16T06:48:02;97952.30;;;15.42;44.30
30856;BME280;17570;0.000;0.000;2022-10-16T06:50:33;97953.27;;;15.41;44.44
30856;BME280;17570;0.000;0.000;2022-10-16T06:53:03;97953.95;;;15.43;44.44
30856;BME280;17570;0.000;0.000;2022-10-16T06:55:33;97961.41;;;15.48;44.65
30856;BME280;17570;0.000;0.000;2022-10-16T06:58:00;97958.69;;;15.49;44.77
30856;BME280;17570;0.000;0.000;2022-10-16T07:00:28;97957.92;;;15.59;44.64
30856;BME280;17570;0.000;0.000;2022-10-16T07:02:55;97953.45;;;15.70;44.47
30856;BME280;17570;0.000;0.000;2022-10-16T07:05:23;97954.47;;;15.79;44.61
30856;BME280;17570;0.000;0.000;2022-10-16T07:07:50;97955.44;;;15.78;44.67
30856;BME280;17570;0.000;0.000;2022-10-16T07:10:18;97946.95;;;15.86;44.79
30856;BME280;17570;0.000;0.000;2022-10-16T07:12:46;97952.33;;;15.94;44.26
30856;BME280;17570;0.000;0.000;2022-10-16T07:15:13;97951.94;;;15.98;44.24
30856;BME280;17570;0.000;0.000;2022-10-16T07:17:41;97959.00;;;16.07;44.48
30856;BME280;17570;0.000;0.000;2022-10-16T07:20:09;97960.84;;;16.17;44.10
30856;BME280;17570;0.000;0.000;2022-10-16T07:22:36;97952.89;;;16.28;44.21
30856;BME280;17570;0.000;0.000;2022-10-16T07:25:05;97954.97;;;16.34;44.07
30856;BME280;17570;0.000;0.000;2022-10-16T07:27:32;97958.42;;;16.35;44.44
30856;BME280;17570;0.000;0.000;2022-10-16T07:30:00;97967.44;;;16.51;44.27
30856;BME280;17570;0.000;0.000;2022-10-16T07:32:28;97963.04;;;16.62;44.06
30856;BME280;17570;0.000;0.000;2022-10-16T07:34:55;97957.95;;;16.70;44.07
30856;BME280;17570;0.000;0.000;2022-10-16T07:37:25;97955.90;;;16.73;44.09
30856;BME280;17570;0.000;0.000;2022-10-16T07:39:52;97954.10;;;16.74;44.06
30856;BME280;17570;0.000;0.000;2022-10-16T07:42:20;97956.05;;;16.72;44.45
30856;BME280;17570;0.000;0.000;2022-10-16T07:44:47;97957.70;;;16.82;44.35
30856;BME280;17570;0.000;0.000;2022-10-16T07:47:15;97963.92;;;16.81;44.41
30856;BME280;17570;0.000;0.000;2022-10-16T07:49:43;97959.50;;;16.82;44.54
30856;BME280;17570;0.000;0.000;2022-10-16T07:52:15;97963.09;;;16.81;44.69
30856;BME280;17570;0.000;0.000;2022-10-16T07:54:40;97962.27;;;16.80;44.65
30856;BME280;17570;0.000;0.000;2022-10-16T07:57:09;97961.72;;;16.87;44.09
30856;BME280;17570;0.000;0.000;2022-10-16T07:59:36;97961.19;;;17.02;43.52
30856;BME280;17570;0.000;0.000;2022-10-16T08:02:04;97961.98;;;17.42;42.30
30856;BME280;17570;0.000;0.000;2022-10-16T08:04:32;97955.50;;;17.36;41.95
30856;BME280;17570;0.000;0.000;2022-10-16T08:06:59;97956.89;;;17.30;42.21
30856;BME280;17570;0.000;0.000;2022-10-16T08:09:27;97951.04;;;17.56;41.50
30856;BME280;17570;0.000;0.000;2022-10-16T08:11:54;97955.17;;;17.68;40.74
30856;BME280;17570;0.000;0.000;2022-10-16T08:14:22;97942.31;;;17.75;40.16
30856;BME280;17570;0.000;0.000;2022-10-16T08:16:52;97947.66;;;17.93;39.90
30856;BME280;17570;0.000;0.000;2022-10-16T08:19:19;97949.18;;;17.95;39.72
30856;BME280;17570;0.000;0.000;2022-10-16T08:21:47;97951.38;;;17.90;40.02
30856;BME280;17570;0.000;0.000;2022-10-16T08:24:14;97948.39;;;18.13;39.57
30856;BME280;17570;0.000;0.000;2022-10-16T08:26:42;97947.40;;;18.23;38.88
30856;BME280;17570;0.000;0.000;2022-10-16T08:29:10;97950.26;;;18.30;39.12
30856;BME280;17570;0.000;0.000;2022-10-16T08:31:37;97947.36;;;18.51;38.73
30856;BME280;17570;0.000;0.000;2022-10-16T08:34:05;97951.16;;;18.66;38.54
30856;BME280;17570;0.000;0.000;2022-10-16T08:36:32;97948.78;;;18.73;37.70
30856;BME280;17570;0.000;0.000;2022-10-16T08:39:00;97948.53;;;18.66;38.29
30856;BME280;17570;0.000;0.000;2022-10-16T08:41:32;97952.63;;;18.96;38.47
30856;BME280;17570;0.000;0.000;2022-10-16T08:46:44;97955.05;;;18.90;37.18
30856;BME280;17570;0.000;0.000;2022-10-16T08:49:14;97947.06;;;18.81;36.95
30856;BME280;17570;0.000;0.000;2022-10-16T08:51:42;97948.72;;;19.00;36.97
30856;BME280;17570;0.000;0.000;2022-10-16T08:54:19;97951.19;;;19.20;36.43
30856;BME280;17570;0.000;0.000;2022-10-16T08:56:46;97956.05;;;19.50;36.75
30856;BME280;17570;0.000;0.000;2022-10-16T08:59:14;97955.06;;;19.51;35.34
30856;BME280;17570;0.000;0.000;2022-10-16T09:01:46;97952.72;;;19.66;35.26
30856;BME280;17570;0.000;0.000;2022-10-16T09:04:22;97954.64;;;19.82;34.65
30856;BME280;17570;0.000;0.000;2022-10-16T09:06:47;97962.58;;;19.90;34.47
30856;BME280;17570;0.000;0.000;2022-10-16T09:11:59;97964.03;;;20.19;34.06
30856;BME280;17570;0.000;0.000;2022-10-16T09:14:39;97962.27;;;20.27;33.57
30856;BME280;17570;0.000;0.000;2022-10-16T09:17:11;97966.63;;;20.45;33.28
30856;BME280;17570;0.000;0.000;2022-10-16T09:19:35;97978.41;;;20.58;32.94
30856;BME280;17570;0.000;0.000;2022-10-16T09:22:08;97970.20;;;20.78;32.84
30856;BME280;17570;0.000;0.000;2022-10-16T09:24:31;97962.34;;;20.94;32.48
30856;BME280;17570;0.000;0.000;2022-10-16T09:27:00;97960.70;;;21.09;32.37
30856;BME280;17570;0.000;0.000;2022-10-16T09:29:27;97959.05;;;21.25;32.53
30856;BME280;17570;0.000;0.000;2022-10-16T09:31:55;97957.59;;;21.38;31.86
30856;BME280;17570;0.000;0.000;2022-10-16T09:34:33;97952.64;;;21.52;31.85
30856;BME280;17570;0.000;0.000;2022-10-16T09:36:56;97949.64;;;21.63;32.03
30856;BME280;17570;0.000;0.000;2022-10-16T09:39:24;97953.92;;;21.72;32.98
30856;BME280;17570;0.000;0.000;2022-10-16T09:41:52;97952.41;;;21.86;32.62
30856;BME280;17570;0.000;0.000;2022-10-16T09:44:29;97954.02;;;22.03;33.09
30856;BME280;17570;0.000;0.000;2022-10-16T09:47:02;97949.05;;;22.17;32.06
30856;BME280;17570;0.000;0.000;2022-10-16T09:49:29;97950.48;;;22.27;31.96
30856;BME280;17570;0.000;0.000;2022-10-16T09:52:04;97944.95;;;22.45;31.84
30856;BME280;17570;0.000;0.000;2022-10-16T09:54:32;97933.75;;;22.66;31.27
30856;BME280;17570;0.000;0.000;2022-10-16T09:57:06;97934.30;;;22.84;31.77
30856;BME280;17570;0.000;0.000;2022-10-16T09:59:33;97926.23;;;23.09;31.99
30856;BME280;17570;0.000;0.000;2022-10-16T10:02:01;97925.55;;;23.30;31.64
30856;BME280;17570;0.000;0.000;2022-10-16T10:04:37;97929.64;;;23.55;31.60
30856;BME280;17570;0.000;0.000;2022-10-16T10:06:59;97929.61;;;23.78;31.31
30856;BME280;17570;0.000;0.000;2022-10-16T10:12:02;97926.02;;;24.30;30.82
30856;BME280;17570;0.000;0.000;2022-10-16T10:19:38;97926.81;;;25.03;29.55
30856;BME280;17570;0.000;0.000;2022-10-16T10:22:20;97919.25;;;25.22;29.34
30856;BME280;17570;0.000;0.000;2022-10-16T10:24:54;97924.17;;;25.46;28.98
30856;BME280;17570;0.000;0.000;2022-10-16T10:27:15;97925.73;;;25.68;28.73
30856;BME280;17570;0.000;0.000;2022-10-16T10:29:52;97920.63;;;25.95;28.25
30856;BME280;17570;0.000;0.000;2022-10-16T10:32:27;97912.14;;;26.19;27.67
30856;BME280;17570;0.000;0.000;2022-10-16T10:35:06;97921.05;;;26.40;27.37
30856;BME280;17570;0.000;0.000;2022-10-16T10:42:41;97913.03;;;27.08;25.59
30856;BME280;17570;0.000;0.000;2022-10-16T10:45:16;97903.45;;;27.33;26.06
30856;BME280;17570;0.000;0.000;2022-10-16T10:47:47;97899.92;;;27.59;25.58
30856;BME280;17570;0.000;0.000;2022-10-16T10:52:58;97887.30;;;28.13;24.77
30856;BME280;17570;0.000;0.000;2022-10-16T10:57:58;97891.00;;;28.63;24.29
30856;BME280;17570;0.000;0.000;2022-10-16T11:00:40;97895.57;;;28.88;24.16
30856;BME280;17570;0.000;0.000;2022-10-16T11:03:21;97886.55;;;29.14;23.89
30856;BME280;17570;0.000;0.000;2022-10-16T11:05:43;97883.50;;;29.35;23.80
30856;BME280;17570;0.000;0.000;2022-10-16T11:13:30;97885.92;;;30.23;22.70
30856;BME280;17570;0.000;0.000;2022-10-16T11:15:58;97879.38;;;30.49;22.44
30856;BME280;17570;0.000;0.000;2022-10-16T11:18:29;97887.17;;;30.69;22.41
30856;BME280;17570;0.000;0.000;2022-10-16T11:21:04;97886.95;;;31.01;22.31
30856;BME280;17570;0.000;0.000;2022-10-16T11:26:00;97874.99;;;31.62;21.94
30856;BME280;17570;0.000;0.000;2022-10-16T11:28:50;97870.79;;;31.90;21.70
30856;BME280;17570;0.000;0.000;2022-10-16T11:33:44;97881.13;;;32.50;21.17
30856;BME280;17570;0.000;0.000;2022-10-16T11:36:12;97875.89;;;32.72;21.09
30856;BME280;17570;0.000;0.000;2022-10-16T11:41:24;97874.16;;;33.28;20.56
30856;BME280;17570;0.000;0.000;2022-10-16T11:46:36;97868.92;;;33.72;19.85
30856;BME280;17570;0.000;0.000;2022-10-16T11:49:12;97873.43;;;33.88;19.70
30856;BME280;17570;0.000;0.000;2022-10-16T11:51:40;97884.31;;;34.15;19.71
30856;BME280;17570;0.000;0.000;2022-10-16T11:54:24;97884.05;;;34.39;19.45
30856;BME280;17570;0.000;0.000;2022-10-16T11:56:48;97876.45;;;34.58;19.50
30856;BME280;17570;0.000;0.000;2022-10-16T11:59:29;97872.83;;;34.74;18.66
30856;BME280;17570;0.000;0.000;2022-10-16T12:01:53;97877.99;;;35.03;18.54
30856;BME280;17570;0.000;0.000;2022-10-16T12:04:26;97877.60;;;35.21;18.26
30856;BME280;17570;0.000;0.000;2022-10-16T12:06:55;97878.84;;;35.45;17.82
30856;BME280;17570;0.000;0.000;2022-10-16T12:09:25;97867.11;;;35.67;17.66
30856;BME280;17570;0.000;0.000;2022-10-16T12:11:51;97875.06;;;35.89;17.90
30856;BME280;17570;0.000;0.000;2022-10-16T12:14:21;97885.47;;;36.12;17.91
30856;BME280;17570;0.000;0.000;2022-10-16T12:16:55;97879.06;;;36.34;17.20
30856;BME280;17570;0.000;0.000;2022-10-16T12:19:24;97882.37;;;36.51;17.14
30856;BME280;17570;0.000;0.000;2022-10-16T12:21:52;97878.62;;;36.67;16.79
30856;BME280;17570;0.000;0.000;2022-10-16T12:24:22;97884.05;;;36.88;16.35
30856;BME280;17570;0.000;0.000;2022-10-16T12:26:50;97878.14;;;37.06;16.22
30856;BME280;17570;0.000;0.000;2022-10-16T12:31:48;97891.42;;;37.38;15.81
30856;BME280;17570;0.000;0.000;2022-10-16T12:34:21;97887.89;;;37.48;18.25
30856;BME280;17570;0.000;0.000;2022-10-16T12:36:48;97888.16;;;37.51;18.40
30856;BME280;17570;0.000;0.000;2022-10-16T12:39:23;97889.52;;;37.54;17.83
30856;BME280;17570;0.000;0.000;2022-10-16T12:42:01;97887.05;;;37.58;17.65
30856;BME280;17570;0.000;0.000;2022-10-16T12:44:33;97887.88;;;37.53;17.21
30856;BME280;17570;0.000;0.000;2022-10-16T12:47:01;97887.07;;;37.52;16.94
30856;BME280;17570;0.000;0.000;2022-10-16T12:49:35;97894.38;;;37.57;16.77
30856;BME280;17570;0.000;0.000;2022-10-16T12:52:00;97887.03;;;37.68;15.83
30856;BME280;17570;0.000;0.000;2022-10-16T12:54:35;97900.58;;;37.78;16.30
30856;BME280;17570;0.000;0.000;2022-10-16T12:59:44;97889.17;;;37.96;16.03
30856;BME280;17570;0.000;0.000;2022-10-16T13:16:17;97894.74;;;38.31;15.90
30856;BME280;17570;0.000;0.000;2022-10-16T13:21:38;97899.43;;;38.64;15.56
30856;BME280;17570;0.000;0.000;2022-10-16T13:27:02;97897.27;;;39.06;15.54
30856;BME280;17570;0.000;0.000;2022-10-16T13:29:31;97902.75;;;39.00;14.94
30856;BME280;17570;0.000;0.000;2022-10-16T13:32:06;97898.72;;;38.93;14.38
30856;BME280;17570;0.000;0.000;2022-10-16T13:34:31;97896.64;;;38.74;14.12
30856;BME280;17570;0.000;0.000;2022-10-16T13:37:20;97895.75;;;38.45;13.31
30856;BME280;17570;0.000;0.000;2022-10-16T13:39:50;97898.06;;;38.07;12.41
30856;BME280;17570;0.000;0.000;2022-10-16T13:42:26;97898.45;;;37.60;12.37
30856;BME280;17570;0.000;0.000;2022-10-16T13:44:56;97899.54;;;37.23;11.51
30856;BME280;17570;0.000;0.000;2022-10-16T13:47:25;97901.08;;;36.68;11.44
30856;BME280;17570;0.000;0.000;2022-10-16T13:52:35;97911.38;;;35.61;12.21
30856;BME280;17570;0.000;0.000;2022-10-16T13:55:09;97905.80;;;35.03;13.06
30856;BME280;17570;0.000;0.000;2022-10-16T13:57:37;97911.25;;;34.59;13.47
30856;BME280;17570;0.000;0.000;2022-10-16T14:00:22;97915.66;;;33.83;14.05
30856;BME280;17570;0.000;0.000;2022-10-16T14:02:49;97912.65;;;33.29;15.12
30856;BME280;17570;0.000;0.000;2022-10-16T14:05:18;97914.79;;;32.53;15.53
30856;BME280;17570;0.000;0.000;2022-10-16T14:07:49;97919.66;;;32.15;15.96
30856;BME280;17570;0.000;0.000;2022-10-16T14:10:28;97923.07;;;31.64;16.56
30856;BME280;17570;0.000;0.000;2022-10-16T14:13:00;97922.01;;;31.30;16.97
30856;BME280;17570;0.000;0.000;2022-10-16T14:15:27;97924.76;;;30.81;17.29
30856;BME280;17570;0.000;0.000;2022-10-16T14:18:00;97929.48;;;30.49;17.96
30856;BME280;17570;0.000;0.000;2022-10-16T14:20:32;97934.56;;;30.39;18.11
30856;BME280;17570;0.000;0.000;2022-10-16T14:23:04;97935.48;;;30.14;18.49
30856;BME280;17570;0.000;0.000;2022-10-16T14:25:39;97935.36;;;30.03;19.15
30856;BME280;17570;0.000;0.000;2022-10-16T14:30:58;97937.71;;;29.49;19.14
30856;BME280;17570;0.000;0.000;2022-10-16T14:33:33;97932.47;;;29.36;19.46
30856;BME280;17570;0.000;0.000;2022-10-16T14:36:13;97930.86;;;29.03;19.66
30856;BME280;17570;0.000;0.000;2022-10-16T14:38:43;97930.09;;;28.96;19.98
30856;BME280;17570;0.000;0.000;2022-10-16T14:41:15;97924.34;;;28.86;21.99